Time;durP1;ratioP1;P1;durP2;ratioP2;P2;SDS_P1;SDS_P2;PMS_P1;PMS_P2;Temp;Humidity;BMP_temperature;BMP_pressure;BME280_temperature;BME280_humidity;BME280_pressure;Samples;Min_cycle;Max_cycle;Signal;HPM_P1;HPM_P2
2022/08/20 00:01:15;;;;;;;18.58;13.07;;;;;;;20.23;88.28;101429.03;5158796;27;20073;-74
2022/08/20 00:03:42;;;;;;;17.70;13.10;;;;;;;20.21;88.63;101420.25;5158986;27;20073;-74
2022/08/20 00:06:21;;;;;;;20.85;13.13;;;;;;;20.22;88.64;101427.31;5158679;27;20047;-75
2022/08/20 00:08:48;;;;;;;18.63;12.25;;;;;;;20.22;88.43;101420.16;5159081;27;20043;-75
2022/08/20 00:11:23;;;;;;;20.98;13.35;;;;;;;20.23;88.83;101418.34;5159031;27;20456;-74
2022/08/20 00:13:56;;;;;;;21.08;12.60;;;;;;;20.23;88.76;101418.34;5159081;27;20043;-74
2022/08/20 00:16:29;;;;;;;19.13;12.95;;;;;;;20.24;88.70;101415.59;5158261;27;20479;-74
2022/08/20 00:19:00;;;;;;;17.73;12.30;;;;;;;20.23;88.65;101421.88;5158301;27;20081;-74
2022/08/20 00:21:28;;;;;;;17.27;12.60;;;;;;;20.21;88.73;101414.88;5158647;27;20067;-74
2022/08/20 00:23:58;;;;;;;17.45;11.90;;;;;;;20.22;88.42;101416.63;5158955;27;20512;-74
2022/08/20 00:26:25;;;;;;;18.65;11.90;;;;;;;20.21;88.39;101421.13;5158271;27;20920;-74
2022/08/20 00:28:53;;;;;;;18.40;11.38;;;;;;;20.18;88.34;101415.94;5158762;27;20047;-74
2022/08/20 00:31:22;;;;;;;15.27;11.63;;;;;;;20.17;88.39;101419.56;5158872;27;20111;-74
2022/08/20 00:33:51;;;;;;;19.25;12.45;;;;;;;20.16;88.62;101415.19;5158544;27;20039;-74
2022/08/20 00:36:19;;;;;;;18.35;11.40;;;;;;;20.14;88.55;101417.97;5157942;27;20039;-75
2022/08/20 00:38:47;;;;;;;17.55;11.55;;;;;;;20.12;88.68;101417.19;5158407;27;20040;-74
2022/08/20 00:41:20;;;;;;;17.38;11.65;;;;;;;20.12;88.81;101422.53;5158518;27;20165;-74
2022/08/20 00:44:03;;;;;;;18.30;11.50;;;;;;;20.11;88.84;101419.97;5158118;27;20077;-75
2022/08/20 00:46:33;;;;;;;15.80;10.70;;;;;;;20.10;88.52;101420.91;5158203;27;20065;-74
2022/08/20 00:49:02;;;;;;;15.90;10.57;;;;;;;20.07;88.54;101418.41;5158265;27;20063;-74
2022/08/20 00:51:49;;;;;;;16.77;10.75;;;;;;;20.04;88.63;101424.84;5158220;27;20066;-74
2022/08/20 00:54:28;;;;;;;15.30;10.40;;;;;;;20.00;88.66;101417.94;5158137;27;20050;-75
2022/08/20 00:57:04;;;;;;;14.52;10.73;;;;;;;19.99;88.51;101424.25;5158258;27;20031;-74
2022/08/20 00:59:36;;;;;;;13.75;9.73;;;;;;;19.98;88.18;101420.72;5158263;27;20512;-75
2022/08/20 01:02:08;;;;;;;17.95;9.38;;;;;;;19.93;88.32;101425.50;5158210;27;20047;-74
2022/08/20 01:04:36;;;;;;;12.82;8.85;;;;;;;19.90;87.84;101424.78;5157957;27;20043;-75
2022/08/20 01:07:06;;;;;;;11.98;8.02;;;;;;;19.86;87.53;101414.31;5157736;27;20044;-75
2022/08/20 01:09:36;;;;;;;13.88;8.45;;;;;;;19.83;87.26;101421.63;5156873;27;20642;-74
2022/08/20 01:12:26;;;;;;;12.05;7.55;;;;;;;19.82;87.34;101420.75;5157805;27;20041;-75
2022/08/20 01:14:55;;;;;;;10.45;8.20;;;;;;;19.81;86.91;101418.19;5157345;27;20039;-75
2022/08/20 01:17:27;;;;;;;12.20;7.80;;;;;;;19.76;87.07;101422.94;5158425;27;20130;-74
2022/08/20 01:20:10;;;;;;;10.63;7.97;;;;;;;19.75;87.04;101416.72;5157032;27;20500;-75
2022/08/20 01:25:46;;;;;;;12.80;9.95;;;;;;;19.74;86.98;101420.34;5157003;27;20505;-75
2022/08/20 01:28:19;;;;;;;12.27;9.05;;;;;;;19.75;87.34;101426.53;5157460;27;20092;-75
2022/08/20 01:30:46;;;;;;;14.73;9.95;;;;;;;19.76;87.42;101428.28;5157846;27;20074;-74
2022/08/20 01:33:15;;;;;;;13.82;9.68;;;;;;;19.76;87.45;101426.47;5157544;27;20035;-74
2022/08/20 01:35:43;;;;;;;13.25;9.57;;;;;;;19.76;87.00;101431.81;5156913;27;20464;-75
2022/08/20 01:38:12;;;;;;;12.90;10.60;;;;;;;19.77;87.03;101432.69;5157340;27;20047;-75
2022/08/20 01:40:39;;;;;;;12.95;9.40;;;;;;;19.73;86.82;101436.50;5157808;27;20529;-75
2022/08/20 01:43:08;;;;;;;12.48;9.95;;;;;;;19.68;86.88;101434.94;5157644;27;20039;-74
2022/08/20 01:45:36;;;;;;;17.60;10.70;;;;;;;19.70;87.34;101430.38;5157112;27;20637;-77
2022/08/20 01:48:06;;;;;;;22.25;11.85;;;;;;;19.64;87.29;101433.41;5157531;27;20074;-73
2022/08/20 01:50:40;;;;;;;21.35;11.50;;;;;;;19.49;87.72;101429.81;5157045;27;20047;-74
2022/08/20 01:53:19;;;;;;;14.05;8.80;;;;;;;19.38;87.89;101424.28;5157338;27;20479;-74
2022/08/20 01:55:46;;;;;;;14.50;9.10;;;;;;;19.26;88.43;101425.81;5157003;27;20045;-74
2022/08/20 01:58:14;;;;;;;12.90;9.00;;;;;;;19.13;88.53;101420.31;5157047;27;20035;-74
2022/08/20 02:00:42;;;;;;;16.35;9.65;;;;;;;19.03;89.32;101422.66;5157289;27;20114;-74
2022/08/20 02:03:09;;;;;;;12.02;8.65;;;;;;;18.97;89.86;101425.69;5157329;27;20088;-73
2022/08/20 02:05:37;;;;;;;12.95;9.15;;;;;;;18.93;89.89;101427.66;5156711;27;20424;-73
2022/08/20 02:08:04;;;;;;;12.70;9.02;;;;;;;18.91;90.40;101429.53;5156880;27;20539;-73
2022/08/20 02:10:33;;;;;;;13.20;9.40;;;;;;;18.89;90.74;101426.06;5156880;27;20043;-73
2022/08/20 02:13:00;;;;;;;14.05;8.88;;;;;;;18.88;91.05;101424.34;5157181;27;20039;-73
2022/08/20 02:15:27;;;;;;;15.82;9.27;;;;;;;18.85;90.92;101429.88;5156763;27;20126;-73
2022/08/20 02:18:12;;;;;;;12.57;9.05;;;;;;;18.81;91.47;101428.31;5155754;27;20872;-73
2022/08/20 02:20:42;;;;;;;12.32;9.23;;;;;;;18.78;91.30;101426.69;5155501;27;20104;-73
2022/08/20 02:23:11;;;;;;;11.13;8.50;;;;;;;18.74;91.80;101430.47;5157101;27;20043;-73
2022/08/20 02:25:42;;;;;;;15.95;9.60;;;;;;;18.71;91.82;101440.47;5156871;27;20532;-73
2022/08/20 02:28:14;;;;;;;14.60;9.02;;;;;;;18.69;91.76;101429.00;5156615;27;20062;-73
2022/08/20 02:30:48;;;;;;;17.33;8.88;;;;;;;18.70;92.15;101425.38;5156604;27;20579;-74
2022/08/20 02:33:18;;;;;;;13.77;9.60;;;;;;;18.71;92.40;101428.00;5156436;27;20066;-74
2022/08/20 02:35:55;;;;;;;10.02;7.40;;;;;;;18.75;92.37;101436.69;5156542;27;20047;-74
2022/08/20 02:38:23;;;;;;;8.93;6.53;;;;;;;18.72;91.98;101445.69;5156477;27;20622;-73
2022/08/20 02:40:50;;;;;;;12.50;7.07;;;;;;;18.67;91.79;101445.09;5156139;27;20057;-73
2022/08/20 02:43:18;;;;;;;10.65;7.00;;;;;;;18.65;92.10;101438.97;5156327;27;20043;-73
2022/08/20 02:45:46;;;;;;;10.23;7.60;;;;;;;18.62;92.22;101439.16;5156337;27;20141;-73
2022/08/20 02:48:19;;;;;;;10.48;7.22;;;;;;;18.61;92.40;101448.13;5156051;27;20093;-73
2022/08/20 02:51:00;;;;;;;10.55;7.80;;;;;;;18.61;92.61;101437.44;5156157;27;20051;-73
2022/08/20 02:53:32;;;;;;;15.07;9.98;;;;;;;18.65;92.67;101428.31;5156453;27;20043;-73
2022/08/20 02:56:00;;;;;;;15.45;10.40;;;;;;;18.67;92.74;101433.59;5156439;27;20072;-73
2022/08/20 02:58:27;;;;;;;22.13;12.23;;;;;;;18.68;92.73;101435.28;5155526;27;20492;-73
2022/08/20 03:00:55;;;;;;;19.70;10.80;;;;;;;18.68;92.97;101437.94;5156208;27;20108;-74
2022/08/20 03:03:23;;;;;;;17.25;11.98;;;;;;;18.70;93.04;101434.28;5156268;27;20046;-73
2022/08/20 03:05:56;;;;;;;16.67;10.93;;;;;;;18.70;93.25;101433.38;5156105;27;20550;-74
2022/08/20 03:08:25;;;;;;;18.40;12.80;;;;;;;18.71;93.21;101440.47;5156359;27;20043;-73
2022/08/20 03:10:53;;;;;;;17.90;13.15;;;;;;;18.67;93.36;101425.56;5155347;27;20074;-73
2022/08/20 03:13:21;;;;;;;24.58;14.60;;;;;;;18.67;93.32;101430.91;5156093;27;20066;-74
2022/08/20 03:15:59;;;;;;;19.40;13.63;;;;;;;18.68;93.33;101435.28;5155990;27;20067;-74
2022/08/20 03:18:41;;;;;;;22.10;13.27;;;;;;;18.69;93.63;101439.69;5154990;27;20046;-74
2022/08/20 03:21:10;;;;;;;18.77;12.93;;;;;;;18.73;93.96;101435.91;5155655;27;20043;-74
2022/08/20 03:23:41;;;;;;;18.73;13.05;;;;;;;18.75;93.76;101426.84;5155923;27;20124;-73
2022/08/20 03:26:12;;;;;;;20.58;13.18;;;;;;;18.76;93.63;101435.75;5155960;27;20608;-74
2022/08/20 03:28:41;;;;;;;18.63;13.20;;;;;;;18.76;93.32;101438.41;5156006;27;20039;-74
2022/08/20 03:31:09;;;;;;;18.80;13.38;;;;;;;18.75;93.60;101437.53;5156379;27;20043;-74
2022/08/20 03:33:41;;;;;;;19.83;14.05;;;;;;;18.76;93.50;101435.75;5162016;27;20050;-73
2022/08/20 03:36:26;;;;;;;20.25;14.35;;;;;;;18.76;93.79;101436.59;5162642;27;20045;-73
2022/08/20 03:38:57;;;;;;;19.13;11.88;;;;;;;18.76;93.64;101436.59;5162662;27;20043;-73
2022/08/20 03:41:25;;;;;;;24.15;14.43;;;;;;;18.75;93.77;101423.34;5162321;27;20043;-74
2022/08/20 03:43:52;;;;;;;20.33;13.95;;;;;;;18.75;93.87;101429.53;5162468;27;20565;-74
2022/08/20 03:46:19;;;;;;;19.88;11.63;;;;;;;18.75;93.76;101423.34;5162321;27;20079;-74
2022/08/20 03:48:54;;;;;;;20.25;14.63;;;;;;;18.75;93.98;101436.69;5162029;27;20031;-73
2022/08/20 03:51:29;;;;;;;19.98;14.38;;;;;;;18.74;94.26;101435.81;5162485;27;20043;-73
2022/08/20 03:53:57;;;;;;;21.67;13.00;;;;;;;18.78;94.34;101437.38;5162870;27;20046;-74
2022/08/20 03:56:25;;;;;;;23.73;14.27;;;;;;;18.82;94.37;101439.88;5162510;27;20077;-74
2022/08/20 03:58:52;;;;;;;22.23;14.57;;;;;;;18.83;94.56;101438.91;5162200;27;20062;-74
2022/08/20 04:01:19;;;;;;;18.77;13.32;;;;;;;18.82;94.54;101432.72;5162435;27;20058;-74
2022/08/20 04:04:06;;;;;;;22.50;15.00;;;;;;;18.83;94.30;101436.22;5162064;27;20043;-73
2022/08/20 04:06:39;;;;;;;21.52;15.15;;;;;;;18.83;94.27;101445.13;5162179;27;20046;-74
2022/08/20 04:09:09;;;;;;;21.52;14.80;;;;;;;18.85;94.59;101445.03;5162184;27;20043;-74
2022/08/20 04:11:40;;;;;;;21.45;12.10;;;;;;;18.85;94.33;101448.59;5162223;27;20039;-73
2022/08/20 04:14:10;;;;;;;21.95;13.07;;;;;;;18.85;94.53;101447.69;5162020;27;20047;-74
2022/08/20 04:16:40;;;;;;;21.40;14.50;;;;;;;18.85;94.69;101451.25;5161922;27;20050;-74
2022/08/20 04:19:07;;;;;;;19.90;14.15;;;;;;;18.85;94.61;101450.38;5162044;27;20585;-74
2022/08/20 04:21:35;;;;;;;19.92;13.75;;;;;;;18.83;94.67;101455.81;5162058;27;20067;-73
2022/08/20 04:24:04;;;;;;;22.77;15.25;;;;;;;18.82;94.86;101453.25;5162274;27;20158;-73
2022/08/20 04:26:35;;;;;;;18.10;12.07;;;;;;;18.83;94.79;101454.94;5161534;27;20136;-74
2022/08/20 04:29:03;;;;;;;19.38;13.43;;;;;;;18.83;94.86;101454.94;5162059;27;20127;-73
2022/08/20 04:31:33;;;;;;;23.95;16.20;;;;;;;18.79;94.65;101459.59;5161954;27;20082;-74
2022/08/20 04:34:06;;;;;;;23.65;15.05;;;;;;;18.80;94.69;101469.31;5161995;27;20035;-73
2022/08/20 04:36:34;;;;;;;21.60;14.18;;;;;;;18.79;95.09;101467.59;5161746;27;20476;-74
2022/08/20 04:39:02;;;;;;;24.58;16.83;;;;;;;18.83;95.58;101471.84;5161808;27;20096;-73
2022/08/20 04:41:29;;;;;;;23.90;16.38;;;;;;;18.86;95.47;101469.00;5161492;27;20075;-74
2022/08/20 04:43:57;;;;;;;26.15;16.35;;;;;;;18.91;95.32;101471.41;5158667;27;20046;-73
2022/08/20 04:46:27;;;;;;;20.85;15.23;;;;;;;18.93;95.46;101473.09;5158480;27;20065;-73
2022/08/20 04:48:56;;;;;;;23.88;15.18;;;;;;;18.97;95.61;101473.78;5158138;27;20054;-74
2022/08/20 04:51:24;;;;;;;24.60;16.70;;;;;;;19.00;95.44;101478.94;5158104;27;20050;-73
2022/08/20 04:53:55;;;;;;;26.52;16.35;;;;;;;19.04;95.70;101482.31;5157893;27;20096;-74
2022/08/20 04:56:30;;;;;;;27.33;16.40;;;;;;;19.04;95.51;101484.97;5158536;27;20036;-74
2022/08/20 04:59:00;;;;;;;26.77;16.50;;;;;;;19.05;95.66;101481.38;5158651;27;20521;-74
2022/08/20 05:01:28;;;;;;;24.30;15.27;;;;;;;19.11;95.26;101489.03;5158037;27;20499;-74
2022/08/20 05:03:56;;;;;;;28.83;15.43;;;;;;;19.13;95.24;101487.13;5157644;27;20039;-73
2022/08/20 05:06:28;;;;;;;23.92;16.70;;;;;;;19.12;95.15;101488.06;5157827;27;20085;-73
2022/08/20 05:08:58;;;;;;;21.40;15.18;;;;;;;19.10;95.10;101495.31;5158359;27;20044;-74
2022/08/20 05:11:27;;;;;;;22.98;16.00;;;;;;;19.08;95.22;101492.75;5158019;27;20112;-73
2022/08/20 05:14:07;;;;;;;24.30;16.00;;;;;;;19.10;95.51;101500.66;5157389;27;20039;-73
2022/08/20 05:16:37;;;;;;;29.23;17.33;;;;;;;19.13;95.32;101507.66;5157530;27;20039;-73
2022/08/20 05:19:10;;;;;;;26.45;17.45;;;;;;;19.12;95.23;101504.09;5158185;27;20047;-73
2022/08/20 05:21:38;;;;;;;26.35;17.98;;;;;;;19.13;95.06;101503.16;5158048;27;20069;-73
2022/08/20 05:24:07;;;;;;;27.20;16.67;;;;;;;19.14;95.09;101509.34;5158028;27;20089;-73
2022/08/20 05:26:34;;;;;;;29.00;18.13;;;;;;;19.12;94.87;101501.44;5157876;27;20047;-73
2022/08/20 05:29:03;;;;;;;28.10;17.65;;;;;;;19.10;94.44;101506.00;5157809;27;20031;-73
2022/08/20 05:31:32;;;;;;;31.48;18.30;;;;;;;19.07;94.07;101503.53;5157310;27;20461;-73
2022/08/20 05:34:08;;;;;;;33.33;19.52;;;;;;;19.04;93.54;101506.34;5157433;27;20049;-74
2022/08/20 05:36:44;;;;;;;;;;;;;;;19.00;93.70;101512.81;5158041;27;20065;-73
2022/08/20 05:39:14;;;;;;;30.05;19.98;;;;;;;18.95;93.96;101515.72;5157524;27;19934;-74
2022/08/20 05:41:41;;;;;;;33.90;19.98;;;;;;;18.94;94.46;101516.66;5157214;27;20063;-74
2022/08/20 05:44:12;;;;;;;37.47;22.15;;;;;;;18.93;94.45;101517.63;5157799;27;20047;-74
2022/08/20 05:46:42;;;;;;;31.92;19.80;;;;;;;18.93;94.47;101520.28;5157242;27;20043;-74
2022/08/20 05:49:15;;;;;;;32.15;20.00;;;;;;;18.92;94.39;101523.91;5157509;27;20040;-73
2022/08/20 05:51:43;;;;;;;42.38;22.17;;;;;;;18.92;94.49;101519.41;5156381;27;20066;-73
2022/08/20 05:54:14;;;;;;;34.40;18.90;;;;;;;18.92;94.96;101519.41;5157098;27;20047;-74
2022/08/20 05:56:42;;;;;;;33.25;21.45;;;;;;;18.98;94.97;101522.69;5157390;27;20430;-74
2022/08/20 05:59:11;;;;;;;37.28;20.92;;;;;;;19.04;94.88;101514.38;5157203;27;20039;-74
2022/08/20 06:01:40;;;;;;;35.45;23.25;;;;;;;19.11;94.73;101520.25;5157378;27;20051;-74
2022/08/20 06:04:23;;;;;;;37.08;21.02;;;;;;;19.16;94.45;101520.84;5157232;27;20092;-74
2022/08/20 06:06:55;;;;;;;36.15;20.35;;;;;;;19.19;94.20;101512.66;5157175;27;20042;-74
2022/08/20 06:09:25;;;;;;;35.90;23.27;;;;;;;19.19;94.02;101516.16;5157254;27;20104;-73
2022/08/20 06:12:01;;;;;;;33.97;22.38;;;;;;;19.27;94.61;101522.91;5156447;27;20061;-74
2022/08/20 06:14:29;;;;;;;39.42;22.95;;;;;;;19.34;94.49;101516.28;5156775;27;20042;-74
2022/08/20 06:17:13;;;;;;;41.70;22.67;;;;;;;19.40;94.05;101514.13;5156250;27;20055;-74
2022/08/20 06:19:43;;;;;;;41.13;22.90;;;;;;;19.38;93.36;101520.50;5157178;27;20047;-73
2022/08/20 06:22:13;;;;;;;43.92;26.42;;;;;;;19.34;93.71;101517.13;5156721;27;20075;-74
2022/08/20 06:24:51;;;;;;;44.55;26.48;;;;;;;19.32;93.77;101518.16;5156516;27;20047;-73
2022/08/20 06:27:19;;;;;;;48.22;26.75;;;;;;;19.31;93.43;101517.31;5156874;27;20067;-74
2022/08/20 06:29:46;;;;;;;43.35;27.30;;;;;;;19.31;93.06;101520.00;5156828;27;20118;-74
2022/08/20 06:32:15;;;;;;;44.70;27.42;;;;;;;19.32;92.87;101529.72;5156646;27;20096;-74
2022/08/20 06:34:42;;;;;;;47.53;29.20;;;;;;;19.34;92.95;101530.47;5156614;27;20488;-72
2022/08/20 06:37:24;;;;;;;46.97;29.30;;;;;;;19.34;93.16;101527.81;5156242;27;20035;-73
2022/08/20 06:40:11;;;;;;;40.53;28.60;;;;;;;19.35;92.57;101529.53;5156256;27;20066;-74
2022/08/20 06:42:42;;;;;;;48.85;29.50;;;;;;;19.34;92.78;101521.63;5156161;27;20040;-74
2022/08/20 06:45:31;;;;;;;43.65;29.25;;;;;;;19.34;92.57;101534.97;5156337;27;20039;-73
2022/08/20 06:48:06;;;;;;;47.55;29.63;;;;;;;19.33;92.57;101535.94;5156154;27;20047;-74
2022/08/20 06:50:40;;;;;;;47.42;28.63;;;;;;;19.39;92.72;101540.91;5156745;27;20043;-74
2022/08/20 06:53:19;;;;;;;50.97;30.25;;;;;;;19.48;92.14;101535.06;5155733;27;20523;-74
2022/08/20 06:55:53;;;;;;;49.55;30.05;;;;;;;19.62;92.04;101525.38;5156466;27;20074;-75
2022/08/20 06:58:20;;;;;;;42.83;28.58;;;;;;;19.70;91.67;101537.38;5156218;27;20500;-74
2022/08/20 07:01:09;;;;;;;42.42;27.85;;;;;;;19.70;90.61;101533.81;5156557;27;20039;-74
2022/08/20 07:03:39;;;;;;;44.08;28.63;;;;;;;19.77;91.20;101539.66;5155949;27;20036;-74
2022/08/20 07:06:26;;;;;;;39.45;26.63;;;;;;;19.89;91.17;101541.66;5155681;27;20118;-74
2022/08/20 07:08:54;;;;;;;41.75;27.92;;;;;;;19.90;89.84;101537.16;5155694;27;20093;-74
2022/08/20 07:11:22;;;;;;;42.65;29.33;;;;;;;20.01;90.50;101540.06;5155903;27;20639;-75
2022/08/20 07:13:58;;;;;;;40.78;28.08;;;;;;;20.16;90.71;101544.53;5156369;27;20555;-74
2022/08/20 07:16:26;;;;;;;38.13;25.58;;;;;;;20.33;88.91;101543.53;5156098;27;20047;-74
2022/08/20 07:18:53;;;;;;;38.42;26.55;;;;;;;20.39;87.58;101538.72;5155162;27;20055;-74
2022/08/20 07:21:21;;;;;;;44.95;26.00;;;;;;;20.40;87.52;101535.94;5156118;27;20096;-74
2022/08/20 07:23:48;;;;;;;39.72;26.73;;;;;;;20.44;88.30;101533.97;5155742;27;20045;-74
2022/08/20 07:26:16;;;;;;;38.63;26.85;;;;;;;20.55;87.82;101542.19;5155835;27;20042;-74
2022/08/20 07:28:44;;;;;;;40.33;25.92;;;;;;;20.67;87.48;101537.03;5155894;27;20043;-74
2022/08/20 07:34:02;;;;;;;34.25;22.90;;;;;;;21.00;85.37;101550.19;5155928;27;20035;-74
2022/08/20 07:36:30;;;;;;;35.45;23.42;;;;;;;21.14;84.47;101543.06;5156171;27;20046;-74
2022/08/20 07:38:57;;;;;;;35.47;23.05;;;;;;;21.16;84.42;101550.06;5155643;27;20039;-74
2022/08/20 07:41:24;;;;;;;31.08;23.02;;;;;;;21.23;84.29;101551.38;5155831;27;20481;-74
2022/08/20 07:43:51;;;;;;;28.15;21.75;;;;;;;21.35;83.58;101551.56;5155123;27;20096;-75
2022/08/20 07:46:20;;;;;;;27.63;21.30;;;;;;;21.39;81.65;101547.69;5155798;27;20092;-74
2022/08/20 07:48:50;;;;;;;23.45;18.15;;;;;;;21.33;80.50;101558.84;5155539;27;20524;-74
2022/08/20 07:51:21;;;;;;;24.90;18.70;;;;;;;21.50;80.38;101563.09;5155658;27;20075;-73
2022/08/20 07:53:50;;;;;;;25.17;19.17;;;;;;;21.54;80.76;101561.94;5155531;27;20070;-74
2022/08/20 07:56:22;;;;;;;28.98;20.85;;;;;;;21.55;80.79;101556.47;5155269;27;20047;-74
2022/08/20 07:58:55;;;;;;;28.77;19.80;;;;;;;21.50;80.61;101561.28;5155757;27;20039;-74
2022/08/20 08:01:28;;;;;;;26.52;19.83;;;;;;;21.57;81.17;101569.78;5155493;27;20063;-74
2022/08/20 08:03:57;;;;;;;25.90;20.42;;;;;;;21.69;79.77;101569.00;5155170;27;20043;-74
2022/08/20 08:06:26;;;;;;;30.08;22.27;;;;;;;21.73;81.09;101566.97;5155507;27;20088;-74
2022/08/20 08:09:17;;;;;;;28.40;20.83;;;;;;;21.76;79.78;101576.66;5155373;27;20085;-74
2022/08/20 08:11:49;;;;;;;28.25;20.55;;;;;;;21.64;79.04;101573.81;5155230;27;20079;-74
2022/08/20 08:14:22;;;;;;;27.42;21.50;;;;;;;21.53;80.51;101576.28;5154815;27;20042;-74
2022/08/20 08:16:53;;;;;;;31.88;21.42;;;;;;;21.50;80.95;101572.00;5155036;27;20067;-74
2022/08/20 08:19:20;;;;;;;27.80;20.38;;;;;;;21.55;80.86;101572.56;5157201;27;20134;-74
2022/08/20 08:21:48;;;;;;;26.98;20.38;;;;;;;21.85;79.89;101570.66;5158326;27;20039;-74
2022/08/20 08:24:16;;;;;;;30.38;21.17;;;;;;;22.21;78.14;101569.16;5158341;27;20526;-74
2022/08/20 08:26:48;;;;;;;29.77;20.67;;;;;;;22.43;78.70;101565.88;5158720;27;20073;-74
2022/08/20 08:29:16;;;;;;;28.27;18.70;;;;;;;22.60;76.71;101572.78;5158789;27;20047;-75
2022/08/20 08:31:43;;;;;;;28.52;18.38;;;;;;;22.71;77.38;101565.78;5158341;27;20082;-74
2022/08/20 08:34:10;;;;;;;22.80;18.27;;;;;;;22.86;75.74;101570.06;5158921;27;20100;-75
2022/08/20 08:36:39;;;;;;;22.45;17.60;;;;;;;22.93;75.68;101575.84;5158563;27;20150;-75
2022/08/20 08:39:06;;;;;;;25.60;17.05;;;;;;;23.07;76.37;101580.25;5158356;27;20487;-75
2022/08/20 08:41:48;;;;;;;24.90;16.80;;;;;;;23.03;74.27;101582.28;5158829;27;20039;-75
2022/08/20 08:44:26;;;;;;;22.23;16.35;;;;;;;23.03;75.24;101578.75;5158027;27;20094;-75
2022/08/20 08:46:59;;;;;;;20.98;17.15;;;;;;;22.83;74.73;101580.16;5158209;27;20077;-74
2022/08/20 08:49:34;;;;;;;25.65;15.85;;;;;;;22.58;74.99;101584.59;5158511;27;20509;-74
2022/08/20 08:52:14;;;;;;;21.42;14.70;;;;;;;22.31;75.00;101594.41;5157782;27;20043;-75
2022/08/20 08:54:50;;;;;;;23.42;15.00;;;;;;;22.07;75.93;101580.84;5158558;27;20035;-74
2022/08/20 08:57:18;;;;;;;18.95;12.65;;;;;;;21.93;75.26;101588.94;5158286;27;20100;-74
2022/08/20 08:59:54;;;;;;;14.75;11.18;;;;;;;21.82;75.69;101593.19;5158331;27;20092;-74
2022/08/20 09:02:34;;;;;;;16.50;10.63;;;;;;;21.77;76.01;101589.97;5158086;27;20035;-74
2022/08/20 09:05:14;;;;;;;18.52;12.27;;;;;;;22.15;75.44;101591.91;5157876;27;20201;-74
2022/08/20 09:07:48;;;;;;;16.23;10.82;;;;;;;22.62;74.52;101592.34;5158115;27;20079;-74
2022/08/20 09:10:17;;;;;;;13.02;9.63;;;;;;;23.00;72.36;101595.09;5157785;27;20040;-74
2022/08/20 09:12:51;;;;;;;10.05;8.02;;;;;;;23.07;70.41;101593.69;5157757;27;20073;-74
2022/08/20 09:15:20;;;;;;;11.88;8.88;;;;;;;22.94;71.42;101591.88;5157977;27;20580;-74
2022/08/20 09:17:47;;;;;;;9.85;5.93;;;;;;;22.79;69.74;101606.41;5157189;27;21000;-75
2022/08/20 09:20:17;;;;;;;6.57;2.65;;;;;;;22.60;68.36;101613.06;5157792;27;20083;-75
2022/08/20 09:22:44;;;;;;;3.88;2.17;;;;;;;22.34;64.31;101604.09;5157944;27;20043;-74
2022/08/20 09:25:11;;;;;;;3.15;1.90;;;;;;;22.09;65.77;101602.19;5157203;27;20043;-75
2022/08/20 09:27:39;;;;;;;5.43;1.80;;;;;;;21.91;64.89;101610.53;5158159;27;20047;-74
2022/08/20 09:30:11;;;;;;;5.97;2.08;;;;;;;21.74;65.76;101603.59;5157270;27;20035;-74
2022/08/20 09:32:40;;;;;;;4.40;2.30;;;;;;;21.62;66.81;101599.03;5157831;27;20042;-74
2022/08/20 09:35:09;;;;;;;5.80;2.17;;;;;;;21.80;66.54;101596.97;5157427;27;20088;-74
2022/08/20 09:37:36;;;;;;;6.82;1.95;;;;;;;22.06;66.80;101595.22;5157114;27;20051;-74
2022/08/20 09:40:07;;;;;;;4.07;1.65;;;;;;;22.41;65.60;101591.13;5157546;27;20051;-75
2022/08/20 09:42:37;;;;;;;6.43;2.03;;;;;;;22.82;65.02;101592.75;5157628;27;20051;-74
2022/08/20 09:45:11;;;;;;;5.60;2.35;;;;;;;23.16;62.37;101593.03;5157517;27;20067;-75
2022/08/20 09:47:40;;;;;;;6.05;1.60;;;;;;;23.25;58.64;101595.06;5157576;27;20065;-75
2022/08/20 09:50:21;;;;;;;6.68;1.90;;;;;;;23.38;57.96;101594.19;5157344;27;20043;-75
2022/08/20 09:52:53;;;;;;;4.65;1.90;;;;;;;23.43;57.26;101589.34;5157097;27;20545;-75
2022/08/20 09:55:37;;;;;;;5.95;1.60;;;;;;;23.39;56.49;101591.41;5157319;27;20039;-75
2022/08/20 09:58:25;;;;;;;;;;;;;;;23.57;57.19;101591.03;5157616;27;20141;-75
2022/08/20 10:00:53;;;;;;;4.85;1.40;;;;;;;23.74;56.41;101581.69;5157623;27;20454;-75
2022/08/20 10:03:20;;;;;;;5.47;1.60;;;;;;;23.97;56.13;101590.75;5157327;27;20035;-75
2022/08/20 10:05:47;;;;;;;9.50;1.92;;;;;;;24.19;55.03;101589.97;5157310;27;20040;-74
2022/08/20 10:08:14;;;;;;;6.15;1.67;;;;;;;24.41;55.01;101591.03;5156511;27;20039;-75
2022/08/20 10:10:42;;;;;;;5.80;1.70;;;;;;;24.32;51.86;101602.50;5150238;27;20063;-75
2022/08/20 10:13:09;;;;;;;5.82;1.85;;;;;;;24.46;50.25;101596.06;5157149;27;20043;-75
2022/08/20 10:15:43;;;;;;;9.80;2.00;;;;;;;24.61;50.52;101597.56;5148547;27;20038;-74
2022/08/20 10:18:10;;;;;;;6.18;1.70;;;;;;;24.80;49.71;101593.44;5148690;27;20055;-75
2022/08/20 10:20:39;;;;;;;6.30;1.92;;;;;;;24.99;49.27;101592.81;5151258;27;20522;-74
2022/08/20 10:23:07;;;;;;;7.28;2.00;;;;;;;25.00;48.60;101599.94;5154353;27;20039;-76
2022/08/20 10:25:37;;;;;;;7.40;1.73;;;;;;;24.94;48.85;101600.44;5154570;27;20075;-74
2022/08/20 10:28:07;;;;;;;9.95;2.08;;;;;;;25.08;48.74;101599.31;5153735;27;20050;-74
2022/08/20 10:30:35;;;;;;;9.45;1.98;;;;;;;25.35;48.51;101609.72;5154767;27;20050;-75
2022/08/20 10:33:02;;;;;;;6.72;1.92;;;;;;;25.49;47.55;101605.94;5155141;27;20947;-75
2022/08/20 10:35:29;;;;;;;11.95;2.13;;;;;;;25.36;46.23;101595.25;5153797;27;20039;-74
2022/08/20 10:37:56;;;;;;;5.88;2.13;;;;;;;25.22;47.41;101598.22;5154683;27;20065;-74
2022/08/20 10:40:24;;;;;;;12.07;2.35;;;;;;;25.06;47.49;101606.69;5151644;27;20039;-73
2022/08/20 10:42:51;;;;;;;7.82;1.75;;;;;;;24.93;46.35;101604.09;5153920;27;20043;-74
2022/08/20 10:45:20;;;;;;;7.63;2.40;;;;;;;24.70;46.93;101617.56;5153761;27;20079;-74
2022/08/20 10:47:47;;;;;;;8.98;1.92;;;;;;;24.60;46.58;101616.53;5154743;27;20089;-73
2022/08/20 10:50:15;;;;;;;5.38;1.92;;;;;;;24.57;45.58;101611.41;5153109;27;20183;-73
2022/08/20 10:52:43;;;;;;;10.00;2.00;;;;;;;24.41;46.21;101612.56;5150086;27;20075;-72
2022/08/20 10:55:10;;;;;;;8.02;1.67;;;;;;;24.46;47.38;101613.09;5148271;27;20051;-74
2022/08/20 10:57:40;;;;;;;5.68;1.60;;;;;;;24.62;47.30;101615.44;5151031;27;20078;-75
2022/08/20 11:00:13;;;;;;;7.68;2.30;;;;;;;24.46;48.50;101610.41;5153849;27;20066;-73
2022/08/20 11:02:40;;;;;;;8.70;1.90;;;;;;;24.64;49.10;101607.25;5152303;27;20413;-73
2022/08/20 11:05:08;;;;;;;6.68;1.83;;;;;;;24.88;49.05;101603.59;5143625;27;20036;-75
2022/08/20 11:07:40;;;;;;;7.75;2.13;;;;;;;24.90;48.66;101605.22;5148157;27;20050;-72
2022/08/20 11:10:28;;;;;;;6.32;2.05;;;;;;;24.91;46.93;101604.25;5148876;27;20483;-75
2022/08/20 11:12:58;;;;;;;7.05;2.05;;;;;;;25.05;46.83;101610.34;5152270;27;20056;-72
2022/08/20 11:15:26;;;;;;;9.85;2.00;;;;;;;24.95;45.53;101608.41;5111134;27;20039;-73
2022/08/20 11:17:55;;;;;;;9.50;1.73;;;;;;;24.78;44.24;101612.41;5145441;27;20128;-72
2022/08/20 11:20:25;;;;;;;5.95;1.75;;;;;;;24.52;45.20;101618.97;5130460;27;20495;-72
2022/08/20 11:22:54;;;;;;;6.28;1.70;;;;;;;24.42;46.33;101622.38;5146770;27;20031;-74
2022/08/20 11:25:23;;;;;;;7.55;1.65;;;;;;;24.57;45.89;101622.19;5132805;27;20043;-71
2022/08/20 11:27:53;;;;;;;6.95;1.60;;;;;;;24.86;45.44;101619.06;5150581;27;20100;-71
2022/08/20 11:30:29;;;;;;;10.43;2.13;;;;;;;25.19;45.12;101615.50;5102016;27;20047;-72
2022/08/20 11:32:59;;;;;;;7.88;1.77;;;;;;;25.50;43.66;101620.28;5131034;27;20047;-72
2022/08/20 11:35:30;;;;;;;7.47;1.70;;;;;;;25.69;43.25;101614.22;5149909;27;20039;-72
2022/08/20 11:38:17;;;;;;;12.07;1.65;;;;;;;25.60;42.12;101623.09;5151009;27;20169;-72